sensor_id;sensor_type;location;lat;lon;timestamp;P1;durP1;ratioP1;P2;durP2;ratioP2
46377;SDS011;32083;47.360;9.650;2023-07-13T00:00:17;5.60;;;3.60;;
46377;SDS011;32083;47.360;9.650;2023-07-13T00:02:43;5.30;;;3.50;;
46377;SDS011;32083;47.360;9.650;2023-07-13T00:05:09;7.10;;;3.42;;
46377;SDS011;32083;47.360;9.650;2023-07-13T00:07:35;4.78;;;3.97;;
46377;SDS011;32083;47.360;9.650;2023-07-13T00:10:02;3.20;;;2.90;;
46377;SDS011;32083;47.360;9.650;2023-07-13T00:12:29;4.07;;;3.50;;
46377;SDS011;32083;47.360;9.650;2023-07-13T00:15:00;4.20;;;2.83;;
46377;SDS011;32083;47.360;9.650;2023-07-13T00:17:28;4.70;;;3.70;;
46377;SDS011;32083;47.360;9.650;2023-07-13T00:19:55;4.82;;;3.00;;
46377;SDS011;32083;47.360;9.650;2023-07-13T00:22:22;6.05;;;3.97;;
46377;SDS011;32083;47.360;9.650;2023-07-13T00:24:50;3.50;;;3.00;;
46377;SDS011;32083;47.360;9.650;2023-07-13T00:27:17;7.38;;;3.42;;
46377;SDS011;32083;47.360;9.650;2023-07-13T00:29:44;7.80;;;3.58;;
46377;SDS011;32083;47.360;9.650;2023-07-13T00:32:10;6.05;;;3.40;;
46377;SDS011;32083;47.360;9.650;2023-07-13T00:34:36;3.97;;;3.03;;
46377;SDS011;32083;47.360;9.650;2023-07-13T00:37:03;4.38;;;3.08;;
46377;SDS011;32083;47.360;9.650;2023-07-13T00:39:31;4.05;;;3.50;;
46377;SDS011;32083;47.360;9.650;2023-07-13T00:41:57;5.07;;;3.92;;
46377;SDS011;32083;47.360;9.650;2023-07-13T00:44:23;4.70;;;3.65;;
46377;SDS011;32083;47.360;9.650;2023-07-13T00:46:49;4.20;;;3.40;;
46377;SDS011;32083;47.360;9.650;2023-07-13T00:49:17;4.35;;;3.60;;
46377;SDS011;32083;47.360;9.650;2023-07-13T00:51:47;6.22;;;3.30;;
46377;SDS011;32083;47.360;9.650;2023-07-13T00:54:18;3.65;;;3.35;;
46377;SDS011;32083;47.360;9.650;2023-07-13T00:56:50;5.22;;;4.20;;
46377;SDS011;32083;47.360;9.650;2023-07-13T00:59:18;6.25;;;3.30;;
46377;SDS011;32083;47.360;9.650;2023-07-13T01:01:46;4.70;;;3.75;;
46377;SDS011;32083;47.360;9.650;2023-07-13T01:04:13;3.50;;;3.00;;
46377;SDS011;32083;47.360;9.650;2023-07-13T01:06:39;3.28;;;2.97;;
46377;SDS011;32083;47.360;9.650;2023-07-13T01:09:06;3.10;;;2.80;;
46377;SDS011;32083;47.360;9.650;2023-07-13T01:11:33;4.05;;;3.65;;
46377;SDS011;32083;47.360;9.650;2023-07-13T01:14:00;3.63;;;3.33;;
46377;SDS011;32083;47.360;9.650;2023-07-13T01:16:31;5.85;;;3.60;;
46377;SDS011;32083;47.360;9.650;2023-07-13T01:18:58;4.88;;;3.17;;
46377;SDS011;32083;47.360;9.650;2023-07-13T01:21:26;7.75;;;3.22;;
46377;SDS011;32083;47.360;9.650;2023-07-13T01:23:53;3.70;;;3.30;;
46377;SDS011;32083;47.360;9.650;2023-07-13T01:26:19;3.67;;;3.22;;
46377;SDS011;32083;47.360;9.650;2023-07-13T01:28:45;3.85;;;3.30;;
46377;SDS011;32083;47.360;9.650;2023-07-13T01:31:10;3.60;;;3.25;;
46377;SDS011;32083;47.360;9.650;2023-07-13T01:33:37;4.82;;;3.53;;
46377;SDS011;32083;47.360;9.650;2023-07-13T01:36:05;6.53;;;2.97;;
46377;SDS011;32083;47.360;9.650;2023-07-13T01:38:32;4.57;;;3.30;;
46377;SDS011;32083;47.360;9.650;2023-07-13T01:40:58;4.32;;;3.08;;
46377;SDS011;32083;47.360;9.650;2023-07-13T01:43:24;6.97;;;3.53;;
46377;SDS011;32083;47.360;9.650;2023-07-13T01:45:50;4.90;;;3.35;;
46377;SDS011;32083;47.360;9.650;2023-07-13T01:48:15;4.47;;;3.30;;
46377;SDS011;32083;47.360;9.650;2023-07-13T01:50:41;4.78;;;3.75;;
46377;SDS011;32083;47.360;9.650;2023-07-13T01:53:07;5.65;;;4.43;;
46377;SDS011;32083;47.360;9.650;2023-07-13T01:55:33;4.38;;;3.50;;
46377;SDS011;32083;47.360;9.650;2023-07-13T01:58:00;8.35;;;3.90;;
46377;SDS011;32083;47.360;9.650;2023-07-13T02:00:26;5.70;;;3.28;;
46377;SDS011;32083;47.360;9.650;2023-07-13T02:02:52;8.50;;;3.97;;
46377;SDS011;32083;47.360;9.650;2023-07-13T02:05:18;4.38;;;3.40;;
46377;SDS011;32083;47.360;9.650;2023-07-13T02:07:44;4.13;;;3.72;;
46377;SDS011;32083;47.360;9.650;2023-07-13T02:10:10;5.88;;;3.75;;
46377;SDS011;32083;47.360;9.650;2023-07-13T02:12:35;5.22;;;3.92;;
46377;SDS011;32083;47.360;9.650;2023-07-13T02:15:02;5.70;;;3.80;;
46377;SDS011;32083;47.360;9.650;2023-07-13T02:17:28;5.32;;;4.13;;
46377;SDS011;32083;47.360;9.650;2023-07-13T02:19:54;3.58;;;3.00;;
46377;SDS011;32083;47.360;9.650;2023-07-13T02:22:20;5.57;;;3.10;;
46377;SDS011;32083;47.360;9.650;2023-07-13T02:24:46;7.63;;;3.92;;
46377;SDS011;32083;47.360;9.650;2023-07-13T02:27:12;4.45;;;3.33;;
46377;SDS011;32083;47.360;9.650;2023-07-13T02:29:38;6.50;;;3.80;;
46377;SDS011;32083;47.360;9.650;2023-07-13T02:32:04;5.78;;;3.80;;
46377;SDS011;32083;47.360;9.650;2023-07-13T02:34:30;4.53;;;3.17;;
46377;SDS011;32083;47.360;9.650;2023-07-13T02:36:56;4.40;;;3.30;;
46377;SDS011;32083;47.360;9.650;2023-07-13T02:39:22;4.43;;;3.53;;
46377;SDS011;32083;47.360;9.650;2023-07-13T02:41:47;3.50;;;2.83;;
46377;SDS011;32083;47.360;9.650;2023-07-13T02:44:13;3.90;;;3.38;;
46377;SDS011;32083;47.360;9.650;2023-07-13T02:46:40;6.30;;;3.38;;
46377;SDS011;32083;47.360;9.650;2023-07-13T02:49:05;7.80;;;3.97;;
46377;SDS011;32083;47.360;9.650;2023-07-13T02:51:31;4.72;;;3.15;;
46377;SDS011;32083;47.360;9.650;2023-07-13T02:53:59;4.00;;;3.22;;
46377;SDS011;32083;47.360;9.650;2023-07-13T02:56:29;3.47;;;3.17;;
46377;SDS011;32083;47.360;9.650;2023-07-13T02:58:56;4.75;;;3.40;;
46377;SDS011;32083;47.360;9.650;2023-07-13T03:01:23;5.10;;;3.35;;
46377;SDS011;32083;47.360;9.650;2023-07-13T03:03:49;3.55;;;2.85;;
46377;SDS011;32083;47.360;9.650;2023-07-13T03:06:16;4.22;;;3.17;;
46377;SDS011;32083;47.360;9.650;2023-07-13T03:08:43;5.50;;;4.45;;
46377;SDS011;32083;47.360;9.650;2023-07-13T03:11:14;3.97;;;3.17;;
46377;SDS011;32083;47.360;9.650;2023-07-13T03:13:42;6.63;;;2.92;;
46377;SDS011;32083;47.360;9.650;2023-07-13T03:16:08;6.22;;;2.85;;
46377;SDS011;32083;47.360;9.650;2023-07-13T03:18:35;3.90;;;2.85;;
46377;SDS011;32083;47.360;9.650;2023-07-13T03:21:02;4.15;;;2.70;;
46377;SDS011;32083;47.360;9.650;2023-07-13T03:23:28;4.70;;;3.33;;
46377;SDS011;32083;47.360;9.650;2023-07-13T03:26:10;3.25;;;2.80;;
46377;SDS011;32083;47.360;9.650;2023-07-13T03:28:40;6.00;;;3.20;;
46377;SDS011;32083;47.360;9.650;2023-07-13T03:31:08;3.53;;;3.00;;
46377;SDS011;32083;47.360;9.650;2023-07-13T03:33:36;3.25;;;2.78;;
46377;SDS011;32083;47.360;9.650;2023-07-13T03:36:02;6.82;;;2.70;;
46377;SDS011;32083;47.360;9.650;2023-07-13T03:38:33;3.67;;;2.92;;
46377;SDS011;32083;47.360;9.650;2023-07-13T03:40:59;2.60;;;2.35;;
46377;SDS011;32083;47.360;9.650;2023-07-13T03:43:25;3.30;;;2.42;;
46377;SDS011;32083;47.360;9.650;2023-07-13T03:45:50;4.05;;;2.60;;
46377;SDS011;32083;47.360;9.650;2023-07-13T03:48:16;5.10;;;2.60;;
46377;SDS011;32083;47.360;9.650;2023-07-13T03:50:42;3.63;;;2.67;;
46377;SDS011;32083;47.360;9.650;2023-07-13T03:53:07;3.78;;;3.20;;
46377;SDS011;32083;47.360;9.650;2023-07-13T03:55:33;3.60;;;2.45;;
46377;SDS011;32083;47.360;9.650;2023-07-13T03:58:45;5.40;;;2.75;;
46377;SDS011;32083;47.360;9.650;2023-07-13T04:00:49;6.40;;;2.83;;
46377;SDS011;32083;47.360;9.650;2023-07-13T04:03:15;6.38;;;3.10;;
46377;SDS011;32083;47.360;9.650;2023-07-13T04:05:41;5.43;;;2.55;;
46377;SDS011;32083;47.360;9.650;2023-07-13T04:08:07;3.88;;;3.00;;
46377;SDS011;32083;47.360;9.650;2023-07-13T04:10:32;3.63;;;2.80;;
46377;SDS011;32083;47.360;9.650;2023-07-13T04:12:58;5.45;;;3.00;;
46377;SDS011;32083;47.360;9.650;2023-07-13T04:15:24;6.38;;;2.85;;
46377;SDS011;32083;47.360;9.650;2023-07-13T04:17:49;4.13;;;2.97;;
46377;SDS011;32083;47.360;9.650;2023-07-13T04:20:15;4.32;;;3.28;;
46377;SDS011;32083;47.360;9.650;2023-07-13T04:22:41;11.02;;;3.80;;
46377;SDS011;32083;47.360;9.650;2023-07-13T04:25:06;3.72;;;2.92;;
46377;SDS011;32083;47.360;9.650;2023-07-13T04:27:32;4.88;;;2.60;;
46377;SDS011;32083;47.360;9.650;2023-07-13T04:29:58;5.13;;;3.28;;
46377;SDS011;32083;47.360;9.650;2023-07-13T04:32:24;6.40;;;3.33;;
46377;SDS011;32083;47.360;9.650;2023-07-13T04:34:49;3.47;;;3.00;;
46377;SDS011;32083;47.360;9.650;2023-07-13T04:37:18;4.32;;;3.03;;
46377;SDS011;32083;47.360;9.650;2023-07-13T04:39:45;4.53;;;2.95;;
46377;SDS011;32083;47.360;9.650;2023-07-13T04:42:10;3.72;;;2.90;;
46377;SDS011;32083;47.360;9.650;2023-07-13T04:44:36;5.95;;;3.28;;
46377;SDS011;32083;47.360;9.650;2023-07-13T04:47:02;4.50;;;2.95;;
46377;SDS011;32083;47.360;9.650;2023-07-13T04:49:27;3.30;;;3.00;;
46377;SDS011;32083;47.360;9.650;2023-07-13T04:51:53;5.35;;;3.53;;
46377;SDS011;32083;47.360;9.650;2023-07-13T04:54:19;6.68;;;4.55;;
46377;SDS011;32083;47.360;9.650;2023-07-13T04:56:46;4.75;;;3.80;;
46377;SDS011;32083;47.360;9.650;2023-07-13T04:59:12;6.65;;;3.38;;
46377;SDS011;32083;47.360;9.650;2023-07-13T05:01:38;5.25;;;3.75;;
46377;SDS011;32083;47.360;9.650;2023-07-13T05:04:04;4.85;;;3.83;;
46377;SDS011;32083;47.360;9.650;2023-07-13T05:06:29;5.53;;;4.43;;
46377;SDS011;32083;47.360;9.650;2023-07-13T05:08:56;5.45;;;3.35;;
46377;SDS011;32083;47.360;9.650;2023-07-13T05:11:24;7.18;;;3.17;;
46377;SDS011;32083;47.360;9.650;2023-07-13T05:13:49;3.70;;;3.20;;
46377;SDS011;32083;47.360;9.650;2023-07-13T05:16:15;3.40;;;2.85;;
46377;SDS011;32083;47.360;9.650;2023-07-13T05:18:41;4.03;;;3.40;;
46377;SDS011;32083;47.360;9.650;2023-07-13T05:21:07;4.85;;;3.30;;
46377;SDS011;32083;47.360;9.650;2023-07-13T05:23:35;5.05;;;3.45;;
46377;SDS011;32083;47.360;9.650;2023-07-13T05:26:01;5.20;;;3.70;;
46377;SDS011;32083;47.360;9.650;2023-07-13T05:28:28;6.47;;;3.22;;
46377;SDS011;32083;47.360;9.650;2023-07-13T05:30:55;6.63;;;3.90;;
46377;SDS011;32083;47.360;9.650;2023-07-13T05:33:21;3.63;;;3.08;;
46377;SDS011;32083;47.360;9.650;2023-07-13T05:35:46;4.40;;;3.55;;
46377;SDS011;32083;47.360;9.650;2023-07-13T05:38:12;6.15;;;3.72;;
46377;SDS011;32083;47.360;9.650;2023-07-13T05:40:38;3.67;;;3.13;;
46377;SDS011;32083;47.360;9.650;2023-07-13T05:43:04;5.38;;;3.60;;
46377;SDS011;32083;47.360;9.650;2023-07-13T05:45:29;8.35;;;4.30;;
46377;SDS011;32083;47.360;9.650;2023-07-13T05:47:55;4.63;;;3.40;;
46377;SDS011;32083;47.360;9.650;2023-07-13T05:50:21;7.35;;;3.83;;
46377;SDS011;32083;47.360;9.650;2023-07-13T05:52:47;4.50;;;3.78;;
46377;SDS011;32083;47.360;9.650;2023-07-13T05:55:12;4.97;;;3.95;;
46377;SDS011;32083;47.360;9.650;2023-07-13T05:57:38;5.78;;;3.60;;
46377;SDS011;32083;47.360;9.650;2023-07-13T06:00:04;5.40;;;3.90;;
46377;SDS011;32083;47.360;9.650;2023-07-13T06:02:31;4.32;;;3.53;;
46377;SDS011;32083;47.360;9.650;2023-07-13T06:05:04;4.43;;;3.40;;
46377;SDS011;32083;47.360;9.650;2023-07-13T06:07:31;5.00;;;4.15;;
46377;SDS011;32083;47.360;9.650;2023-07-13T06:09:57;5.25;;;3.80;;
46377;SDS011;32083;47.360;9.650;2023-07-13T06:12:24;7.60;;;4.25;;
46377;SDS011;32083;47.360;9.650;2023-07-13T06:14:52;4.90;;;3.97;;
46377;SDS011;32083;47.360;9.650;2023-07-13T06:17:32;4.45;;;3.88;;
46377;SDS011;32083;47.360;9.650;2023-07-13T06:21:05;5.18;;;4.22;;
46377;SDS011;32083;47.360;9.650;2023-07-13T06:23:50;4.22;;;3.65;;
46377;SDS011;32083;47.360;9.650;2023-07-13T06:27:04;4.65;;;3.67;;
46377;SDS011;32083;47.360;9.650;2023-07-13T06:44:35;6.90;;;3.87;;
46377;SDS011;32083;47.360;9.650;2023-07-13T06:47:16;7.18;;;4.10;;
46377;SDS011;32083;47.360;9.650;2023-07-13T06:53:56;4.43;;;3.95;;
46377;SDS011;32083;47.360;9.650;2023-07-13T07:00:13;7.50;;;4.43;;
46377;SDS011;32083;47.360;9.650;2023-07-13T07:03:31;7.65;;;5.05;;
46377;SDS011;32083;47.360;9.650;2023-07-13T07:07:06;9.00;;;5.20;;
46377;SDS011;32083;47.360;9.650;2023-07-13T07:10:09;6.97;;;4.22;;
46377;SDS011;32083;47.360;9.650;2023-07-13T07:23:01;6.68;;;3.80;;
46377;SDS011;32083;47.360;9.650;2023-07-13T07:25:44;4.65;;;3.58;;
46377;SDS011;32083;47.360;9.650;2023-07-13T07:31:27;4.10;;;3.42;;
46377;SDS011;32083;47.360;9.650;2023-07-13T07:33:55;6.22;;;3.95;;
46377;SDS011;32083;47.360;9.650;2023-07-13T07:36:27;7.35;;;4.88;;
46377;SDS011;32083;47.360;9.650;2023-07-13T07:42:08;8.38;;;5.88;;
46377;SDS011;32083;47.360;9.650;2023-07-13T07:44:34;6.68;;;4.88;;
46377;SDS011;32083;47.360;9.650;2023-07-13T07:50:07;6.20;;;5.60;;
46377;SDS011;32083;47.360;9.650;2023-07-13T07:52:33;8.65;;;4.45;;
46377;SDS011;32083;47.360;9.650;2023-07-13T07:55:03;7.70;;;4.20;;
46377;SDS011;32083;47.360;9.650;2023-07-13T07:57:30;6.93;;;4.90;;
46377;SDS011;32083;47.360;9.650;2023-07-13T08:00:05;5.95;;;5.25;;
46377;SDS011;32083;47.360;9.650;2023-07-13T08:02:37;7.78;;;4.80;;
46377;SDS011;32083;47.360;9.650;2023-07-13T08:05:17;6.18;;;4.10;;
46377;SDS011;32083;47.360;9.650;2023-07-13T08:08:17;6.35;;;4.75;;
46377;SDS011;32083;47.360;9.650;2023-07-13T08:10:46;9.35;;;5.00;;
46377;SDS011;32083;47.360;9.650;2023-07-13T08:13:14;6.53;;;4.03;;
46377;SDS011;32083;47.360;9.650;2023-07-13T08:15:46;5.85;;;4.38;;
46377;SDS011;32083;47.360;9.650;2023-07-13T08:18:14;5.65;;;3.88;;
46377;SDS011;32083;47.360;9.650;2023-07-13T08:20:40;6.80;;;4.78;;
46377;SDS011;32083;47.360;9.650;2023-07-13T08:23:08;5.93;;;4.10;;
46377;SDS011;32083;47.360;9.650;2023-07-13T08:32:19;5.53;;;4.00;;
46377;SDS011;32083;47.360;9.650;2023-07-13T08:35:01;4.97;;;4.45;;
46377;SDS011;32083;47.360;9.650;2023-07-13T08:37:43;6.78;;;3.78;;
46377;SDS011;32083;47.360;9.650;2023-07-13T08:48:49;7.30;;;4.40;;
46377;SDS011;32083;47.360;9.650;2023-07-13T08:54:10;5.05;;;4.22;;
46377;SDS011;32083;47.360;9.650;2023-07-13T09:15:59;4.88;;;3.60;;
46377;SDS011;32083;47.360;9.650;2023-07-13T09:18:50;5.40;;;4.90;;
46377;SDS011;32083;47.360;9.650;2023-07-13T09:21:29;5.65;;;4.80;;
46377;SDS011;32083;47.360;9.650;2023-07-13T09:26:57;5.97;;;5.30;;
46377;SDS011;32083;47.360;9.650;2023-07-13T09:29:28;7.80;;;5.18;;
46377;SDS011;32083;47.360;9.650;2023-07-13T09:31:58;3.60;;;3.30;;
46377;SDS011;32083;47.360;9.650;2023-07-13T09:34:28;5.13;;;4.03;;
46377;SDS011;32083;47.360;9.650;2023-07-13T09:36:57;6.03;;;4.25;;
46377;SDS011;32083;47.360;9.650;2023-07-13T09:39:27;4.22;;;3.83;;
46377;SDS011;32083;47.360;9.650;2023-07-13T09:42:07;4.60;;;4.07;;
46377;SDS011;32083;47.360;9.650;2023-07-13T09:44:51;5.68;;;3.92;;
46377;SDS011;32083;47.360;9.650;2023-07-13T09:47:23;4.20;;;3.30;;
46377;SDS011;32083;47.360;9.650;2023-07-13T09:50:00;5.55;;;4.15;;
46377;SDS011;32083;47.360;9.650;2023-07-13T09:52:38;4.43;;;4.03;;
46377;SDS011;32083;47.360;9.650;2023-07-13T09:58:19;5.55;;;3.83;;
46377;SDS011;32083;47.360;9.650;2023-07-13T10:00:58;5.00;;;3.70;;
46377;SDS011;32083;47.360;9.650;2023-07-13T10:03:31;4.57;;;3.33;;
46377;SDS011;32083;47.360;9.650;2023-07-13T10:06:19;5.82;;;4.30;;
46377;SDS011;32083;47.360;9.650;2023-07-13T10:08:49;5.80;;;3.60;;
46377;SDS011;32083;47.360;9.650;2023-07-13T10:11:20;4.47;;;4.05;;
46377;SDS011;32083;47.360;9.650;2023-07-13T10:16:22;8.02;;;4.50;;
46377;SDS011;32083;47.360;9.650;2023-07-13T10:18:52;4.65;;;3.50;;
46377;SDS011;32083;47.360;9.650;2023-07-13T10:21:26;5.50;;;3.67;;
46377;SDS011;32083;47.360;9.650;2023-07-13T10:24:16;5.72;;;4.20;;
46377;SDS011;32083;47.360;9.650;2023-07-13T10:26:48;4.95;;;3.70;;
46377;SDS011;32083;47.360;9.650;2023-07-13T10:29:29;6.28;;;4.13;;
46377;SDS011;32083;47.360;9.650;2023-07-13T10:32:00;6.45;;;4.43;;
46377;SDS011;32083;47.360;9.650;2023-07-13T10:34:26;5.65;;;3.90;;
46377;SDS011;32083;47.360;9.650;2023-07-13T10:36:53;6.15;;;4.55;;
46377;SDS011;32083;47.360;9.650;2023-07-13T10:39:22;4.88;;;4.15;;
46377;SDS011;32083;47.360;9.650;2023-07-13T10:41:55;6.25;;;4.85;;
46377;SDS011;32083;47.360;9.650;2023-07-13T10:44:30;5.13;;;4.03;;
46377;SDS011;32083;47.360;9.650;2023-07-13T10:46:59;6.45;;;4.38;;
46377;SDS011;32083;47.360;9.650;2023-07-13T10:49:32;4.63;;;4.18;;
46377;SDS011;32083;47.360;9.650;2023-07-13T10:52:00;5.57;;;5.00;;
46377;SDS011;32083;47.360;9.650;2023-07-13T10:59:51;5.40;;;4.90;;
46377;SDS011;32083;47.360;9.650;2023-07-13T11:02:55;5.10;;;4.60;;
46377;SDS011;32083;47.360;9.650;2023-07-13T11:05:37;5.38;;;4.88;;
46377;SDS011;32083;47.360;9.650;2023-07-13T11:12:18;4.75;;;3.92;;
46377;SDS011;32083;47.360;9.650;2023-07-13T11:20:08;7.57;;;4.60;;
46377;SDS011;32083;47.360;9.650;2023-07-13T11:22:48;6.43;;;4.75;;
46377;SDS011;32083;47.360;9.650;2023-07-13T11:28:37;4.88;;;3.55;;
46377;SDS011;32083;47.360;9.650;2023-07-13T11:33:31;9.55;;;5.35;;
46377;SDS011;32083;47.360;9.650;2023-07-13T11:36:19;7.15;;;5.43;;
46377;SDS011;32083;47.360;9.650;2023-07-13T11:41:34;6.03;;;5.07;;
46377;SDS011;32083;47.360;9.650;2023-07-13T11:44:21;8.15;;;5.75;;
46377;SDS011;32083;47.360;9.650;2023-07-13T11:46:53;7.90;;;4.57;;
46377;SDS011;32083;47.360;9.650;2023-07-13T11:49:30;8.30;;;5.38;;
46377;SDS011;32083;47.360;9.650;2023-07-13T11:52:12;7.28;;;5.45;;
46377;SDS011;32083;47.360;9.650;2023-07-13T11:54:48;8.40;;;5.65;;
46377;SDS011;32083;47.360;9.650;2023-07-13T12:00:32;6.18;;;5.38;;
46377;SDS011;32083;47.360;9.650;2023-07-13T12:02:57;5.22;;;4.72;;
46377;SDS011;32083;47.360;9.650;2023-07-13T12:05:26;6.60;;;4.50;;
46377;SDS011;32083;47.360;9.650;2023-07-13T12:07:52;5.30;;;4.50;;
46377;SDS011;32083;47.360;9.650;2023-07-13T12:10:21;8.75;;;5.28;;
46377;SDS011;32083;47.360;9.650;2023-07-13T12:12:52;4.88;;;4.28;;
46377;SDS011;32083;47.360;9.650;2023-07-13T12:15:20;10.02;;;5.20;;
46377;SDS011;32083;47.360;9.650;2023-07-13T12:17:48;6.88;;;4.28;;
46377;SDS011;32083;47.360;9.650;2023-07-13T12:20:23;4.38;;;3.97;;
46377;SDS011;32083;47.360;9.650;2023-07-13T12:22:51;3.95;;;3.05;;
46377;SDS011;32083;47.360;9.650;2023-07-13T12:25:18;6.03;;;3.63;;
46377;SDS011;32083;47.360;9.650;2023-07-13T12:27:50;6.50;;;3.45;;
46377;SDS011;32083;47.360;9.650;2023-07-13T12:35:38;3.65;;;2.60;;
46377;SDS011;32083;47.360;9.650;2023-07-13T12:38:08;4.47;;;2.97;;
46377;SDS011;32083;47.360;9.650;2023-07-13T12:40:49;4.13;;;2.83;;
46377;SDS011;32083;47.360;9.650;2023-07-13T12:43:25;2.78;;;2.30;;
46377;SDS011;32083;47.360;9.650;2023-07-13T12:45:56;4.35;;;2.85;;
46377;SDS011;32083;47.360;9.650;2023-07-13T12:48:37;4.55;;;2.50;;
46377;SDS011;32083;47.360;9.650;2023-07-13T12:51:08;2.85;;;2.00;;
46377;SDS011;32083;47.360;9.650;2023-07-13T12:53:38;2.83;;;2.20;;
46377;SDS011;32083;47.360;9.650;2023-07-13T12:56:31;7.05;;;2.80;;
46377;SDS011;32083;47.360;9.650;2023-07-13T12:59:01;2.90;;;2.25;;
46377;SDS011;32083;47.360;9.650;2023-07-13T13:01:29;5.03;;;2.38;;
46377;SDS011;32083;47.360;9.650;2023-07-13T13:04:00;3.28;;;2.20;;
46377;SDS011;32083;47.360;9.650;2023-07-13T13:06:32;4.18;;;2.28;;
46377;SDS011;32083;47.360;9.650;2023-07-13T13:09:00;5.10;;;2.08;;
46377;SDS011;32083;47.360;9.650;2023-07-13T13:11:27;5.32;;;2.42;;
46377;SDS011;32083;47.360;9.650;2023-07-13T13:13:55;4.45;;;2.38;;
46377;SDS011;32083;47.360;9.650;2023-07-13T13:16:29;4.32;;;2.25;;
46377;SDS011;32083;47.360;9.650;2023-07-13T13:21:50;4.72;;;2.22;;
46377;SDS011;32083;47.360;9.650;2023-07-13T13:24:45;3.78;;;2.15;;
46377;SDS011;32083;47.360;9.650;2023-07-13T13:27:18;3.17;;;2.53;;
46377;SDS011;32083;47.360;9.650;2023-07-13T13:29:50;5.47;;;3.15;;
46377;SDS011;32083;47.360;9.650;2023-07-13T13:32:19;3.10;;;2.25;;
46377;SDS011;32083;47.360;9.650;2023-07-13T13:34:44;3.08;;;2.70;;
46377;SDS011;32083;47.360;9.650;2023-07-13T13:37:23;4.72;;;2.60;;
46377;SDS011;32083;47.360;9.650;2023-07-13T13:39:51;5.82;;;3.80;;
46377;SDS011;32083;47.360;9.650;2023-07-13T13:42:39;5.40;;;3.28;;
46377;SDS011;32083;47.360;9.650;2023-07-13T13:45:09;4.63;;;3.00;;
46377;SDS011;32083;47.360;9.650;2023-07-13T13:47:38;3.58;;;2.85;;
46377;SDS011;32083;47.360;9.650;2023-07-13T13:50:17;6.15;;;3.85;;
46377;SDS011;32083;47.360;9.650;2023-07-13T13:52:49;5.10;;;3.13;;
46377;SDS011;32083;47.360;9.650;2023-07-13T13:55:19;3.92;;;2.97;;
46377;SDS011;32083;47.360;9.650;2023-07-13T13:57:46;4.57;;;2.78;;
46377;SDS011;32083;47.360;9.650;2023-07-13T14:00:13;3.92;;;2.83;;
46377;SDS011;32083;47.360;9.650;2023-07-13T14:02:42;4.32;;;3.40;;
46377;SDS011;32083;47.360;9.650;2023-07-13T14:05:18;4.40;;;4.03;;
46377;SDS011;32083;47.360;9.650;2023-07-13T14:07:51;4.50;;;3.67;;
46377;SDS011;32083;47.360;9.650;2023-07-13T14:10:18;4.88;;;3.70;;
46377;SDS011;32083;47.360;9.650;2023-07-13T14:12:49;4.18;;;3.75;;
46377;SDS011;32083;47.360;9.650;2023-07-13T14:17:47;3.97;;;3.25;;
46377;SDS011;32083;47.360;9.650;2023-07-13T14:20:16;5.80;;;4.13;;
46377;SDS011;32083;47.360;9.650;2023-07-13T14:22:42;4.38;;;3.65;;
46377;SDS011;32083;47.360;9.650;2023-07-13T14:25:13;4.05;;;2.85;;
46377;SDS011;32083;47.360;9.650;2023-07-13T14:27:40;4.65;;;3.42;;
46377;SDS011;32083;47.360;9.650;2023-07-13T14:30:17;3.28;;;2.85;;
46377;SDS011;32083;47.360;9.650;2023-07-13T14:32:45;3.67;;;2.28;;
46377;SDS011;32083;47.360;9.650;2023-07-13T14:35:11;3.47;;;2.90;;
46377;SDS011;32083;47.360;9.650;2023-07-13T14:37:42;5.65;;;2.30;;
46377;SDS011;32083;47.360;9.650;2023-07-13T14:42:43;2.53;;;2.10;;
46377;SDS011;32083;47.360;9.650;2023-07-13T14:45:15;4.55;;;2.22;;
46377;SDS011;32083;47.360;9.650;2023-07-13T14:47:42;5.90;;;2.25;;
46377;SDS011;32083;47.360;9.650;2023-07-13T14:50:23;3.47;;;2.05;;
46377;SDS011;32083;47.360;9.650;2023-07-13T14:52:55;7.10;;;2.47;;
46377;SDS011;32083;47.360;9.650;2023-07-13T14:55:21;2.80;;;2.00;;
46377;SDS011;32083;47.360;9.650;2023-07-13T14:57:50;2.90;;;2.17;;
46377;SDS011;32083;47.360;9.650;2023-07-13T15:00:18;2.42;;;1.70;;
46377;SDS011;32083;47.360;9.650;2023-07-13T15:02:51;4.38;;;2.20;;
46377;SDS011;32083;47.360;9.650;2023-07-13T15:05:28;4.47;;;2.60;;
46377;SDS011;32083;47.360;9.650;2023-07-13T15:08:00;2.58;;;1.80;;
46377;SDS011;32083;47.360;9.650;2023-07-13T15:10:29;3.53;;;2.35;;
46377;SDS011;32083;47.360;9.650;2023-07-13T15:15:54;2.30;;;2.08;;
46377;SDS011;32083;47.360;9.650;2023-07-13T15:18:22;3.22;;;1.92;;
46377;SDS011;32083;47.360;9.650;2023-07-13T15:20:50;1.92;;;1.73;;
46377;SDS011;32083;47.360;9.650;2023-07-13T15:23:20;6.28;;;2.83;;
46377;SDS011;32083;47.360;9.650;2023-07-13T15:25:47;2.05;;;1.80;;
46377;SDS011;32083;47.360;9.650;2023-07-13T15:28:14;2.00;;;1.80;;
46377;SDS011;32083;47.360;9.650;2023-07-13T15:30:42;2.33;;;2.13;;
46377;SDS011;32083;47.360;9.650;2023-07-13T15:33:27;2.53;;;1.83;;
46377;SDS011;32083;47.360;9.650;2023-07-13T15:35:54;5.25;;;2.10;;
46377;SDS011;32083;47.360;9.650;2023-07-13T15:38:23;4.97;;;2.55;;
46377;SDS011;32083;47.360;9.650;2023-07-13T15:40:51;5.05;;;2.38;;
46377;SDS011;32083;47.360;9.650;2023-07-13T15:43:18;5.22;;;2.42;;
46377;SDS011;32083;47.360;9.650;2023-07-13T15:45:45;3.05;;;1.90;;
46377;SDS011;32083;47.360;9.650;2023-07-13T15:48:13;4.10;;;2.30;;
46377;SDS011;32083;47.360;9.650;2023-07-13T15:51:01;2.95;;;1.73;;
46377;SDS011;32083;47.360;9.650;2023-07-13T15:53:29;2.15;;;1.85;;
46377;SDS011;32083;47.360;9.650;2023-07-13T15:55:58;2.97;;;2.08;;
46377;SDS011;32083;47.360;9.650;2023-07-13T15:58:24;2.65;;;2.08;;
46377;SDS011;32083;47.360;9.650;2023-07-13T16:00:51;3.65;;;2.00;;
46377;SDS011;32083;47.360;9.650;2023-07-13T16:03:19;2.78;;;2.03;;
46377;SDS011;32083;47.360;9.650;2023-07-13T16:05:46;3.63;;;2.22;;
46377;SDS011;32083;47.360;9.650;2023-07-13T16:08:21;4.40;;;1.80;;
46377;SDS011;32083;47.360;9.650;2023-07-13T16:10:50;2.30;;;1.98;;
46377;SDS011;32083;47.360;9.650;2023-07-13T16:13:18;4.55;;;2.35;;
46377;SDS011;32083;47.360;9.650;2023-07-13T16:15:46;3.30;;;2.10;;
46377;SDS011;32083;47.360;9.650;2023-07-13T16:18:12;3.53;;;2.63;;
46377;SDS011;32083;47.360;9.650;2023-07-13T16:20:44;2.60;;;2.20;;
46377;SDS011;32083;47.360;9.650;2023-07-13T16:23:12;3.13;;;2.10;;
46377;SDS011;32083;47.360;9.650;2023-07-13T16:25:39;3.05;;;1.67;;
46377;SDS011;32083;47.360;9.650;2023-07-13T16:28:06;2.70;;;1.92;;
46377;SDS011;32083;47.360;9.650;2023-07-13T16:30:34;2.42;;;1.92;;
46377;SDS011;32083;47.360;9.650;2023-07-13T16:33:02;2.22;;;1.70;;
46377;SDS011;32083;47.360;9.650;2023-07-13T16:35:35;3.15;;;2.03;;
46377;SDS011;32083;47.360;9.650;2023-07-13T16:38:03;3.08;;;2.05;;
46377;SDS011;32083;47.360;9.650;2023-07-13T16:40:38;2.95;;;2.15;;
46377;SDS011;32083;47.360;9.650;2023-07-13T16:43:05;2.30;;;2.10;;
46377;SDS011;32083;47.360;9.650;2023-07-13T16:45:36;3.63;;;1.98;;
46377;SDS011;32083;47.360;9.650;2023-07-13T16:48:05;1.60;;;1.50;;
46377;SDS011;32083;47.360;9.650;2023-07-13T16:50:40;2.40;;;2.03;;
46377;SDS011;32083;47.360;9.650;2023-07-13T16:53:21;4.07;;;2.20;;
46377;SDS011;32083;47.360;9.650;2023-07-13T16:55:48;2.58;;;1.85;;
46377;SDS011;32083;47.360;9.650;2023-07-13T16:58:15;3.70;;;2.05;;
46377;SDS011;32083;47.360;9.650;2023-07-13T17:00:42;2.40;;;1.80;;
46377;SDS011;32083;47.360;9.650;2023-07-13T17:03:08;2.88;;;1.95;;
46377;SDS011;32083;47.360;9.650;2023-07-13T17:08:13;2.20;;;2.00;;
46377;SDS011;32083;47.360;9.650;2023-07-13T17:10:39;3.17;;;1.90;;
46377;SDS011;32083;47.360;9.650;2023-07-13T17:13:10;2.42;;;1.85;;
46377;SDS011;32083;47.360;9.650;2023-07-13T17:15:38;2.83;;;1.92;;
46377;SDS011;32083;47.360;9.650;2023-07-13T17:18:05;2.47;;;1.60;;
46377;SDS011;32083;47.360;9.650;2023-07-13T17:20:33;2.60;;;1.33;;